Tropical Cyclones
[Index]
Main Index Home Page Stock Weather Photos Extreme Storms Discussion Storm News and Storm Chasing Reports Tropical Cyclones / Hurricanes / Typhoons Weather Data and Links Wild Fires / Bushfires Weather Observation Techniques Weather Picture Catalogue Tornado Pictures and Reports Stock Video Footage and DVDs for sale
Season 1994-1995 Tropical Cyclone GAIL Track Map
Season 1994-1995 Summaries: [BoM-AU] [JTWC-AU] [JTWC-SIO] [JTWC-SPAC] [JTWC-SH]
<<- Previous TC | JTWC 1994-1995 Season | Next TC ->>

click for intensity scale information  Lat/long Grid: Show Hide

 Date Labels: Show Hide

Joint Typhoon Warning Centre Cyclone Data

Name: GAIL

31 Jan 1995 18:00 UTC to 12 Feb 1995 12:00 UTC

    date/time    lat    long     hPa   cat  kts
1995-01-31 18   12.5    72.0                  15          
1995-02-01 00   12.6    71.9                  15          
1995-02-01 06   12.6    71.8                  15          
1995-02-01 12   12.5    71.7                  20          
1995-02-01 18   12.4    71.6                  20          
1995-02-02 00   12.3    71.5                  20          
1995-02-02 06   12.2    71.4                  20          
1995-02-02 12   12.1    71.3                  25          
1995-02-02 18   12.0    71.3                  25          
1995-02-03 00   11.9    71.4                  25          
1995-02-03 06   11.8    71.5                  20          
1995-02-03 12   11.7    71.7                  20          
1995-02-03 18   11.6    72.0                  20          
1995-02-04 00   11.7    72.3                  20          
1995-02-04 06   11.8    72.5                  25          
1995-02-04 12   12.0    72.7                  25          
1995-02-04 18   12.3    72.8                  30          
1995-02-05 00   12.6    72.7                  30          
1995-02-05 06   12.9    72.5                  30          
1995-02-05 12   13.1    72.2                  35          
1995-02-05 18   13.3    71.9            1     45          
1995-02-06 00   13.6    71.6            2     55          
1995-02-06 06   13.9    71.2            2     65          
1995-02-06 12   14.2    70.7            2     65          
1995-02-06 18   14.6    70.1            2     70          
1995-02-07 00   15.1    69.4            2     70          
1995-02-07 06   15.6    68.6            2     70          
1995-02-07 12   16.2    67.9            3     75          
1995-02-07 18   16.8    67.3            3     75          
1995-02-08 00   17.4    66.7            3     75          
1995-02-08 06   18.0    66.0            3     75          
1995-02-08 12   18.5    65.2            2     70          
1995-02-08 18   19.0    64.4            2     70          
1995-02-09 00   19.4    63.4            2     70          
1995-02-09 06   19.9    62.4            2     65          
1995-02-09 12   20.5    61.3            2     65          
1995-02-09 18   21.4    60.3            2     65          
1995-02-10 00   22.6    59.6            2     65          
1995-02-10 06   24.0    59.3            2     70          
1995-02-10 12   25.6    59.2            3     75          
1995-02-10 18   27.3    59.7            3     75          
1995-02-11 00   29.1    60.7            2     70          
1995-02-11 06   31.0    61.9            2     65          
1995-02-11 12   33.1    63.1            2     60          
1995-02-11 18   35.3    64.4            2     55          
1995-02-12 00   37.5    65.6            1     50          
1995-02-12 06   39.7    66.9            1     45          
1995-02-12 12   41.7    68.8            1     40          
Winds are 1-min average.

Tropical cyclone tracks developed by Michael Bath using data from the Joint Typhoon Warning Centre Best Tracks and Google Maps.


[Australian Severe Weather index] [Copyright Notice] [Email Contacts] [Search This Site] [Privacy Policy]
Document: tropical_cyclone_gail.htm Updated: 18 September 2016